createdAt,value
2023-04-16T00:02:06.076Z,7.58
2023-04-16T00:05:08.704Z,7.51
2023-04-16T00:08:10.452Z,7.49
2023-04-16T00:11:12.379Z,7.42
2023-04-16T00:14:14.139Z,7.44
2023-04-16T00:17:17.393Z,7.39
2023-04-16T00:20:19.416Z,7.39
2023-04-16T00:23:21.053Z,7.35
2023-04-16T00:26:22.800Z,7.35
2023-04-16T00:29:24.734Z,7.24
2023-04-16T00:32:27.998Z,7.19
2023-04-16T00:35:29.669Z,7.13
2023-04-16T00:38:31.577Z,7.11
2023-04-16T00:41:33.233Z,7.15
2023-04-16T00:44:35.109Z,7.05
2023-04-16T00:47:38.347Z,7.06
2023-04-16T00:50:40.042Z,6.91
2023-04-16T00:53:42.014Z,6.83
2023-04-16T00:56:44.498Z,6.75
2023-04-16T00:59:46.437Z,6.73
2023-04-16T01:02:49.743Z,6.67
2023-04-16T01:05:51.479Z,6.65
2023-04-16T01:08:53.169Z,6.70
2023-04-16T01:11:55.109Z,6.60
2023-04-16T01:14:57.262Z,6.57
2023-04-16T01:18:00.395Z,6.56
2023-04-16T01:21:04.096Z,6.52
2023-04-16T01:24:06.207Z,6.47
2023-04-16T01:27:07.936Z,6.41
2023-04-16T01:30:10.163Z,6.29
2023-04-16T01:33:12.499Z,6.29
2023-04-16T01:36:15.611Z,6.18
2023-04-16T01:39:17.295Z,6.16
2023-04-16T01:42:19.070Z,6.11
2023-04-16T01:45:20.829Z,6.05
2023-04-16T01:48:22.569Z,6.05
2023-04-16T01:51:25.606Z,6.05
2023-04-16T01:54:27.474Z,5.90
2023-04-16T01:57:29.397Z,5.89
2023-04-16T02:00:31.116Z,5.87
2023-04-16T02:03:33.333Z,5.85
2023-04-16T02:06:36.465Z,5.77
2023-04-16T02:09:40.209Z,5.74
2023-04-16T02:12:41.958Z,5.73
2023-04-16T02:15:45.911Z,5.72
2023-04-16T02:18:47.319Z,5.77
2023-04-16T02:21:51.555Z,5.77
2023-04-16T02:24:53.152Z,5.78
2023-04-16T02:27:55.167Z,5.85
2023-04-16T02:30:56.789Z,5.85
2023-04-16T02:33:58.697Z,5.87
2023-04-16T02:37:01.972Z,5.87
2023-04-16T02:40:04.068Z,5.86
2023-04-16T02:43:05.711Z,5.86
2023-04-16T02:46:07.663Z,5.97
2023-04-16T02:49:09.823Z,5.96
2023-04-16T02:52:15.085Z,5.95
2023-04-16T02:55:17.573Z,5.93
2023-04-16T02:58:19.516Z,5.96
2023-04-16T03:01:21.178Z,5.99
2023-04-16T03:04:22.921Z,6.04
2023-04-16T03:07:25.961Z,5.98
2023-04-16T03:10:27.586Z,5.93
2023-04-16T03:13:29.248Z,5.95
2023-04-16T03:16:31.196Z,5.96
2023-04-16T03:19:33.115Z,5.90
2023-04-16T03:22:36.062Z,5.95
2023-04-16T03:25:37.932Z,5.97
2023-04-16T03:28:39.555Z,5.90
2023-04-16T03:31:41.548Z,5.90
2023-04-16T03:34:43.498Z,5.83
2023-04-16T03:37:46.802Z,5.82
2023-04-16T03:40:48.406Z,5.88
2023-04-16T03:43:50.521Z,5.96
2023-04-16T03:46:52.463Z,5.90
2023-04-16T03:49:54.755Z,5.97
2023-04-16T03:52:58.272Z,6.05
2023-04-16T03:56:00.284Z,6.06
2023-04-16T03:59:02.044Z,6.16
2023-04-16T04:02:03.836Z,6.19
2023-04-16T04:05:05.969Z,6.31
2023-04-16T04:08:09.657Z,6.40
2023-04-16T04:11:11.311Z,6.42
2023-04-16T04:14:12.997Z,6.53
2023-04-16T04:17:14.976Z,6.54
2023-04-16T04:20:16.850Z,6.62
2023-04-16T04:23:19.894Z,6.65
2023-04-16T04:26:21.873Z,6.75
2023-04-16T04:29:23.559Z,6.81
2023-04-16T04:32:25.535Z,6.81
2023-04-16T04:35:27.288Z,6.88
2023-04-16T04:38:30.333Z,6.91
2023-04-16T04:41:32.087Z,6.94
2023-04-16T04:44:34.015Z,6.96
2023-04-16T04:47:35.720Z,6.99
2023-04-16T04:50:37.437Z,7.01
2023-04-16T04:53:40.447Z,7.12
2023-04-16T04:56:42.403Z,7.09
2023-04-16T04:59:44.361Z,7.11
2023-04-16T05:02:46.539Z,7.22
2023-04-16T05:05:48.378Z,7.31
2023-04-16T05:08:51.460Z,7.35
2023-04-16T05:11:53.855Z,7.42
2023-04-16T05:14:55.516Z,7.49
2023-04-16T05:17:57.675Z,7.46
2023-04-16T05:20:59.630Z,7.56
2023-04-16T05:24:02.677Z,7.64
2023-04-16T05:27:04.701Z,7.71
2023-04-16T05:30:07.732Z,7.90
2023-04-16T05:33:09.421Z,7.95
2023-04-16T05:36:11.661Z,8.03
2023-04-16T05:39:16.842Z,8.13
2023-04-16T05:42:18.562Z,8.27
2023-04-16T05:45:20.414Z,8.29
2023-04-16T05:48:22.416Z,8.31
2023-04-16T05:51:24.127Z,8.41
2023-04-16T05:54:27.150Z,8.52
2023-04-16T05:57:28.756Z,8.44
2023-04-16T06:00:30.614Z,8.57
2023-04-16T06:03:32.578Z,8.60
2023-04-16T06:06:34.518Z,8.54
2023-04-16T06:09:37.783Z,8.66
2023-04-16T06:12:39.445Z,8.72
2023-04-16T06:15:41.319Z,8.78
2023-04-16T06:18:42.987Z,8.90
2023-04-16T06:21:44.709Z,8.93
2023-04-16T06:24:48.047Z,8.94
2023-04-16T06:27:49.726Z,9.02
2023-04-16T06:30:51.689Z,9.11
2023-04-16T06:33:53.720Z,9.20
2023-04-16T06:36:55.934Z,9.35
2023-04-16T06:39:59.506Z,9.48
2023-04-16T06:43:01.176Z,9.50
2023-04-16T06:46:03.012Z,9.61
2023-04-16T06:49:04.906Z,9.64
2023-04-16T06:52:06.993Z,9.78
2023-04-16T06:55:10.448Z,9.96
2023-04-16T06:58:12.200Z,10.00
2023-04-16T07:01:14.021Z,10.18
2023-04-16T07:04:15.812Z,10.20
2023-04-16T07:07:17.784Z,10.15
2023-04-16T07:10:20.811Z,10.18
2023-04-16T07:13:22.684Z,10.22
2023-04-16T07:16:24.475Z,10.37
2023-04-16T07:19:26.625Z,10.46
2023-04-16T07:22:28.290Z,10.53
2023-04-16T07:25:31.374Z,10.60
2023-04-16T07:28:33.058Z,10.73
2023-04-16T07:31:34.826Z,10.86
2023-04-16T07:34:36.714Z,10.85
2023-04-16T07:37:38.600Z,10.93
2023-04-16T07:40:41.779Z,10.99
2023-04-16T07:43:43.438Z,11.04
2023-04-16T07:46:47.458Z,11.10
2023-04-16T07:49:49.399Z,11.25
2023-04-16T07:52:51.294Z,11.41
2023-04-16T07:55:54.338Z,11.61
2023-04-16T07:58:56.283Z,11.86
2023-04-16T08:01:58.095Z,11.93
2023-04-16T08:04:59.994Z,11.90
2023-04-16T08:08:01.768Z,11.98
2023-04-16T08:11:04.949Z,11.96
2023-04-16T08:14:06.667Z,12.05
2023-04-16T08:17:08.352Z,12.06
2023-04-16T08:20:12.184Z,12.17
2023-04-16T08:23:16.308Z,12.23
2023-04-16T08:26:19.491Z,12.31
2023-04-16T08:29:21.408Z,12.61
2023-04-16T08:32:23.053Z,12.60
2023-04-16T08:35:24.850Z,12.74
2023-04-16T08:38:26.770Z,12.77
2023-04-16T08:41:32.268Z,12.74
2023-04-16T08:44:35.828Z,12.71
2023-04-16T08:47:37.368Z,12.91
2023-04-16T08:50:41.192Z,13.17
2023-04-16T08:53:48.590Z,13.07
2023-04-16T08:56:51.902Z,12.97
2023-04-16T08:59:55.998Z,13.01
2023-04-16T09:02:58.841Z,12.96
2023-04-16T09:06:01.438Z,12.95
2023-04-16T09:09:06.279Z,12.99
2023-04-16T09:12:10.505Z,13.08
2023-04-16T09:15:13.416Z,12.98
2023-04-16T09:18:15.307Z,13.05
2023-04-16T09:21:17.350Z,13.19
2023-04-16T09:24:19.787Z,13.21
2023-04-16T09:27:25.388Z,13.31
2023-04-16T09:30:28.424Z,13.27
2023-04-16T09:33:30.099Z,13.43
2023-04-16T09:36:32.206Z,13.51
2023-04-16T09:39:34.201Z,13.75
2023-04-16T09:42:37.563Z,13.71
2023-04-16T09:45:50.047Z,13.66
2023-04-16T09:48:51.916Z,13.88
2023-04-16T09:51:54.483Z,14.11
2023-04-16T09:54:56.203Z,14.37
2023-04-16T09:58:02.533Z,14.71
2023-04-16T10:01:07.267Z,15.10
2023-04-16T10:04:09.121Z,15.23
2023-04-16T10:07:10.867Z,15.19
2023-04-16T10:10:12.816Z,15.25
2023-04-16T10:13:15.929Z,15.41
2023-04-16T10:16:18.163Z,15.22
2023-04-16T10:19:21.050Z,15.22
2023-04-16T10:22:22.979Z,15.46
2023-04-16T10:25:25.151Z,15.24
2023-04-16T10:28:28.580Z,15.38
2023-04-16T10:31:31.155Z,15.44
2023-04-16T10:34:33.328Z,15.62
2023-04-16T10:37:37.068Z,15.69
2023-04-16T10:40:38.738Z,15.61
2023-04-16T10:43:44.710Z,15.83
2023-04-16T10:46:47.378Z,15.86
2023-04-16T10:49:49.109Z,15.63
2023-04-16T10:53:18.595Z,15.74
2023-04-16T10:56:23.985Z,15.78
2023-04-16T10:59:31.149Z,15.88
2023-04-16T11:02:33.089Z,15.91
2023-04-16T11:05:45.419Z,16.11
2023-04-16T11:08:54.729Z,16.26
2023-04-16T11:11:57.727Z,16.41
2023-04-16T11:15:02.171Z,16.29
2023-04-16T11:18:04.289Z,16.58
2023-04-16T11:21:08.620Z,16.56
2023-04-16T11:24:12.513Z,16.57
2023-04-16T11:27:14.617Z,16.74
2023-04-16T11:30:18.828Z,16.81
2023-04-16T11:33:20.675Z,16.42
2023-04-16T11:36:22.338Z,16.76
2023-04-16T11:39:24.124Z,16.94
2023-04-16T11:42:27.734Z,16.87
2023-04-16T11:45:32.209Z,16.73
2023-04-16T11:48:47.159Z,16.88
2023-04-16T11:51:48.878Z,16.94
2023-04-16T11:54:50.788Z,16.98
2023-04-16T11:57:52.727Z,17.05
2023-04-16T12:00:56.677Z,17.25
2023-04-16T12:04:02.341Z,17.48
2023-04-16T12:07:05.845Z,17.33
2023-04-16T12:10:08.563Z,17.28
2023-04-16T12:13:11.633Z,17.38
2023-04-16T12:16:20.502Z,17.06
2023-04-16T12:19:22.198Z,17.41
2023-04-16T12:22:30.903Z,17.58
2023-04-16T12:25:33.044Z,17.74
2023-04-16T12:28:36.343Z,17.98
2023-04-16T12:31:39.527Z,17.87
2023-04-16T12:34:50.854Z,17.87
2023-04-16T12:37:53.726Z,17.82
2023-04-16T12:40:55.413Z,17.56
2023-04-16T12:44:04.199Z,17.58
2023-04-16T12:47:07.248Z,17.63
2023-04-16T12:50:09.697Z,17.55
2023-04-16T12:53:11.711Z,17.74
2023-04-16T12:56:13.670Z,17.70
2023-04-16T12:59:15.632Z,17.82
2023-04-16T13:02:18.939Z,17.91
2023-04-16T13:05:20.752Z,17.96
2023-04-16T13:08:32.765Z,17.93
2023-04-16T13:11:36.539Z,17.80
2023-04-16T13:14:51.980Z,17.56
2023-04-16T13:18:28.395Z,17.63
2023-04-16T13:22:12.499Z,17.77
2023-04-16T13:25:15.717Z,17.52
2023-04-16T13:28:18.046Z,17.50
2023-04-16T13:31:31.263Z,17.42
2023-04-16T13:34:39.249Z,17.60
2023-04-16T13:37:51.865Z,17.72
2023-04-16T13:41:00.090Z,17.55
2023-04-16T13:44:07.641Z,17.69
2023-04-16T13:47:15.251Z,17.90
2023-04-16T13:50:31.862Z,18.14
2023-04-16T13:53:42.140Z,18.38
2023-04-16T13:56:45.908Z,18.41
2023-04-16T13:59:50.162Z,18.41
2023-04-16T14:03:21.422Z,18.29
2023-04-16T14:06:31.802Z,18.30
2023-04-16T14:09:35.569Z,18.71
2023-04-16T14:12:57.860Z,18.94
2023-04-16T14:16:04.653Z,18.82
2023-04-16T14:19:13.429Z,18.51
2023-04-16T14:22:18.414Z,18.45
2023-04-16T14:25:21.064Z,18.47
2023-04-16T14:28:23.075Z,18.46
2023-04-16T14:31:25.726Z,18.43
2023-04-16T14:34:28.983Z,18.20
2023-04-16T14:37:33.546Z,18.38
2023-04-16T14:40:35.923Z,18.39
2023-04-16T14:43:50.408Z,18.43
2023-04-16T14:46:56.651Z,18.20
2023-04-16T14:50:04.270Z,18.21
2023-04-16T14:53:14.685Z,18.12
2023-04-16T14:56:17.858Z,17.87
2023-04-16T14:59:19.990Z,18.04
2023-04-16T15:02:21.780Z,18.20
2023-04-16T15:05:24.995Z,18.33
2023-04-16T15:08:28.656Z,18.06
2023-04-16T15:11:30.424Z,17.84
2023-04-16T15:14:32.347Z,17.68
2023-04-16T15:17:34.935Z,17.51
2023-04-16T15:20:37.332Z,17.51
2023-04-16T15:23:40.765Z,17.47
2023-04-16T15:26:42.226Z,17.32
2023-04-16T15:29:44.813Z,17.28
2023-04-16T15:32:47.651Z,17.28
2023-04-16T15:35:49.877Z,17.29
2023-04-16T15:38:54.872Z,17.25
2023-04-16T15:42:01.565Z,17.22
2023-04-16T15:45:05.131Z,17.18
2023-04-16T15:48:07.525Z,17.03
2023-04-16T15:51:11.050Z,16.95
2023-04-16T15:54:14.912Z,16.83
2023-04-16T15:57:16.997Z,16.78
2023-04-16T16:00:18.863Z,16.88
2023-04-16T16:03:21.484Z,16.85
2023-04-16T16:06:23.893Z,16.83
2023-04-16T16:09:27.168Z,16.97
2023-04-16T16:12:30.087Z,17.12
2023-04-16T16:15:34.395Z,16.86
2023-04-16T16:18:36.675Z,16.76
2023-04-16T16:21:38.694Z,16.69
2023-04-16T16:24:42.083Z,16.78
2023-04-16T16:27:44.289Z,16.60
2023-04-16T16:30:46.215Z,16.49
2023-04-16T16:33:47.911Z,16.42
2023-04-16T16:36:49.779Z,16.35
2023-04-16T16:39:53.808Z,16.27
2023-04-16T16:42:57.189Z,16.29
2023-04-16T16:45:59.094Z,16.12
2023-04-16T16:49:01.191Z,16.01
2023-04-16T16:52:03.715Z,15.92
2023-04-16T16:55:08.698Z,15.99
2023-04-16T16:58:11.123Z,15.87
2023-04-16T17:01:13.305Z,15.80
2023-04-16T17:04:17.166Z,15.83
2023-04-16T17:07:22.131Z,15.78
2023-04-16T17:10:26.055Z,15.69
2023-04-16T17:13:29.872Z,15.70
2023-04-16T17:16:32.190Z,15.60
2023-04-16T17:19:35.096Z,15.62
2023-04-16T17:22:39.256Z,15.65
2023-04-16T17:25:43.710Z,15.65
2023-04-16T17:28:47.648Z,15.59
2023-04-16T17:31:49.906Z,15.46
2023-04-16T17:34:55.222Z,15.35
2023-04-16T17:37:58.617Z,15.57
2023-04-16T17:41:02.556Z,15.43
2023-04-16T17:44:04.784Z,15.28
2023-04-16T17:47:08.111Z,15.17
2023-04-16T17:50:11.638Z,15.17
2023-04-16T17:53:13.937Z,15.19
2023-04-16T17:56:20.495Z,15.13
2023-04-16T17:59:23.039Z,15.09
2023-04-16T18:02:26.807Z,15.16
2023-04-16T18:05:31.167Z,15.04
2023-04-16T18:08:33.715Z,15.00
2023-04-16T18:11:37.326Z,15.06
2023-04-16T18:14:39.570Z,14.99
2023-04-16T18:17:41.772Z,14.94
2023-04-16T18:20:47.258Z,14.90
2023-04-16T18:23:49.544Z,14.91
2023-04-16T18:26:55.305Z,14.90
2023-04-16T18:29:57.980Z,14.82
2023-04-16T18:33:26.316Z,14.73
2023-04-16T18:36:22.822Z,14.74
2023-04-16T18:39:25.577Z,14.69
2023-04-16T18:42:29.594Z,14.65
2023-04-16T18:45:34.439Z,14.51
2023-04-16T18:48:37.269Z,14.54
2023-04-16T18:51:39.945Z,14.50
2023-04-16T18:54:43.648Z,14.38
2023-04-16T18:57:47.880Z,14.29
2023-04-16T19:00:53.713Z,14.24
2023-04-16T19:03:57.257Z,14.18
2023-04-16T19:07:00.014Z,14.10
2023-04-16T19:10:01.773Z,14.09
2023-04-16T19:13:05.301Z,14.09
2023-04-16T19:16:07.575Z,14.05
2023-04-16T19:19:13.575Z,14.06
2023-04-16T19:22:20.940Z,13.95
2023-04-16T19:25:24.219Z,13.87
2023-04-16T19:28:28.277Z,13.84
2023-04-16T19:31:31.534Z,13.75
2023-04-16T19:34:34.184Z,13.85
2023-04-16T19:37:36.731Z,13.92
2023-04-16T19:40:38.468Z,13.87
2023-04-16T19:43:45.918Z,13.83
2023-04-16T19:46:48.668Z,13.74
2023-04-16T19:49:50.563Z,13.70
2023-04-16T19:52:52.252Z,13.66
2023-04-16T19:55:55.165Z,13.59
2023-04-16T19:59:02.283Z,13.56
2023-04-16T20:02:04.864Z,13.60
2023-04-16T20:05:07.567Z,13.61
2023-04-16T20:08:09.985Z,13.50
2023-04-16T20:11:12.486Z,13.43
2023-04-16T20:14:16.436Z,13.49
2023-04-16T20:17:18.821Z,13.48
2023-04-16T20:20:21.459Z,13.41
2023-04-16T20:23:24.145Z,13.42
2023-04-16T20:26:26.161Z,13.31
2023-04-16T20:29:31.522Z,13.31
2023-04-16T20:32:33.400Z,13.44
2023-04-16T20:35:35.640Z,13.37
2023-04-16T20:38:38.920Z,13.35
2023-04-16T20:41:41.018Z,13.26
2023-04-16T20:44:44.116Z,13.28
2023-04-16T20:47:46.233Z,13.28
2023-04-16T20:50:48.585Z,13.25
2023-04-16T20:53:50.808Z,13.19
2023-04-16T20:56:52.591Z,13.15
2023-04-16T20:59:55.896Z,13.17
2023-04-16T21:02:57.766Z,13.21
2023-04-16T21:06:00.057Z,13.19
2023-04-16T21:09:01.708Z,13.19
2023-04-16T21:12:03.682Z,13.23
2023-04-16T21:15:08.181Z,13.23
2023-04-16T21:18:10.647Z,13.18
2023-04-16T21:21:12.289Z,13.17
2023-04-16T21:24:13.971Z,13.14
2023-04-16T21:27:15.966Z,13.16
2023-04-16T21:30:19.279Z,13.07
2023-04-16T21:33:20.948Z,13.16
2023-04-16T21:36:22.588Z,13.11
2023-04-16T21:39:24.539Z,13.07
2023-04-16T21:42:26.236Z,13.02
2023-04-16T21:45:30.669Z,12.94
2023-04-16T21:48:32.715Z,12.91
2023-04-16T21:51:34.618Z,12.94
2023-04-16T21:54:36.320Z,12.90
2023-04-16T21:57:38.281Z,12.87
2023-04-16T22:00:41.381Z,12.86
2023-04-16T22:03:43.166Z,12.83
2023-04-16T22:06:44.845Z,12.84
2023-04-16T22:09:46.461Z,12.90
2023-04-16T22:12:48.182Z,12.84
2023-04-16T22:15:51.354Z,12.86
2023-04-16T22:18:53.252Z,12.79
2023-04-16T22:21:54.988Z,12.79
2023-04-16T22:24:56.693Z,12.79
2023-04-16T22:27:58.337Z,12.82
2023-04-16T22:31:01.587Z,12.82
2023-04-16T22:34:03.817Z,12.81
2023-04-16T22:37:05.922Z,12.80
2023-04-16T22:40:08.765Z,12.79
2023-04-16T22:43:10.714Z,12.85
2023-04-16T22:46:13.831Z,12.86
2023-04-16T22:49:15.484Z,12.77
2023-04-16T22:52:17.125Z,12.88
2023-04-16T22:55:19.007Z,12.86
2023-04-16T22:58:21.017Z,12.85
2023-04-16T23:01:24.457Z,12.74
2023-04-16T23:04:26.330Z,12.78
2023-04-16T23:07:28.096Z,12.79
2023-04-16T23:10:29.797Z,12.73
2023-04-16T23:13:31.959Z,12.72
2023-04-16T23:16:35.014Z,12.78
2023-04-16T23:19:36.930Z,12.73
2023-04-16T23:22:38.947Z,12.80
2023-04-16T23:25:41.407Z,12.84
2023-04-16T23:28:43.231Z,12.77
2023-04-16T23:31:46.379Z,12.69
2023-04-16T23:34:48.124Z,12.76
2023-04-16T23:37:50.107Z,12.63
2023-04-16T23:40:51.780Z,12.58
2023-04-16T23:43:53.705Z,12.67
2023-04-16T23:46:57.049Z,12.65
2023-04-16T23:49:58.985Z,12.59
2023-04-16T23:53:00.668Z,12.58
2023-04-16T23:56:02.421Z,12.56
2023-04-16T23:59:04.109Z,12.58
